createdAt,value
2018-11-11T00:01:18.975Z,95.30
2018-11-11T00:03:47.697Z,95.50
2018-11-11T00:06:16.421Z,95.90
2018-11-11T00:08:45.122Z,96.20
2018-11-11T00:11:13.895Z,96.50
2018-11-11T00:13:42.529Z,96.80
2018-11-11T00:16:11.323Z,97.00
2018-11-11T00:18:40.023Z,97.10
2018-11-11T00:21:08.730Z,97.20
2018-11-11T00:23:37.460Z,97.30
2018-11-11T00:26:06.234Z,97.40
2018-11-11T00:28:34.909Z,97.70
2018-11-11T00:31:03.655Z,97.80
2018-11-11T00:33:32.340Z,97.80
2018-11-11T00:36:01.075Z,98.00
2018-11-11T00:38:29.746Z,97.80
2018-11-11T00:40:58.497Z,97.90
2018-11-11T00:43:27.196Z,98.00
2018-11-11T00:45:55.973Z,98.20
2018-11-11T00:48:24.730Z,98.20
2018-11-11T00:50:53.377Z,98.30
2018-11-11T00:53:22.049Z,98.30
2018-11-11T00:55:52.309Z,98.30
2018-11-11T00:58:21.010Z,98.20
2018-11-11T01:00:49.649Z,98.10
2018-11-11T01:03:18.324Z,98.00
2018-11-11T01:05:47.077Z,97.90
2018-11-11T01:08:15.960Z,97.90
2018-11-11T01:10:44.610Z,98.00
2018-11-11T01:13:13.288Z,98.00
2018-11-11T01:15:41.993Z,98.10
2018-11-11T01:18:10.704Z,98.10
2018-11-11T01:20:39.356Z,98.30
2018-11-11T01:23:08.060Z,98.60
2018-11-11T01:25:36.954Z,98.70
2018-11-11T01:28:05.998Z,98.90
2018-11-11T01:30:34.803Z,99.00
2018-11-11T01:33:03.564Z,99.10
2018-11-11T01:35:32.231Z,99.10
2018-11-11T01:38:00.877Z,99.20
2018-11-11T01:40:29.701Z,99.20
2018-11-11T01:42:58.365Z,99.20
2018-11-11T01:45:27.080Z,99.30
2018-11-11T01:47:55.923Z,99.20
2018-11-11T01:50:24.573Z,99.20
2018-11-11T01:52:53.397Z,99.20
2018-11-11T01:55:22.034Z,99.10
2018-11-11T01:57:50.939Z,99.10
2018-11-11T02:00:19.916Z,99.10
2018-11-11T02:02:49.289Z,99.20
2018-11-11T02:05:18.028Z,99.10
2018-11-11T02:07:47.398Z,99.10
2018-11-11T02:10:16.353Z,99.10
2018-11-11T02:12:46.222Z,99.10
2018-11-11T02:15:15.832Z,99.20
2018-11-11T02:17:44.496Z,99.40
2018-11-11T02:20:16.545Z,99.50
2018-11-11T02:22:46.558Z,99.60
2018-11-11T02:25:15.348Z,99.80
2018-11-11T02:27:44.457Z,99.80
2018-11-11T02:30:18.035Z,99.80
2018-11-11T02:32:46.821Z,99.60
2018-11-11T02:35:15.520Z,99.60
2018-11-11T02:37:44.678Z,99.60
2018-11-11T02:40:15.299Z,99.80
2018-11-11T02:42:44.271Z,99.70
2018-11-11T02:45:14.203Z,99.80
2018-11-11T02:47:42.864Z,99.80
2018-11-11T02:50:13.672Z,99.80
2018-11-11T02:52:43.059Z,99.80
2018-11-11T02:55:12.370Z,99.80
2018-11-11T02:57:41.644Z,99.80
2018-11-11T03:00:13.005Z,99.80
2018-11-11T03:02:43.202Z,99.80
2018-11-11T03:05:13.180Z,99.80
2018-11-11T03:07:41.936Z,99.80
2018-11-11T03:10:11.936Z,99.80
2018-11-11T03:12:41.103Z,99.80
2018-11-11T03:15:11.026Z,99.80
2018-11-11T03:17:39.744Z,99.80
2018-11-11T03:20:09.345Z,99.80
2018-11-11T03:22:38.105Z,99.80
2018-11-11T03:25:08.110Z,99.80
2018-11-11T03:27:36.809Z,99.80
2018-11-11T03:30:08.909Z,99.80
2018-11-11T03:32:37.941Z,99.80
2018-11-11T03:35:08.531Z,99.80
2018-11-11T03:37:37.304Z,99.80
2018-11-11T03:40:08.715Z,99.80
2018-11-11T03:42:37.390Z,99.80
2018-11-11T03:45:07.132Z,99.80
2018-11-11T03:47:35.897Z,99.80
2018-11-11T03:50:05.412Z,99.80
2018-11-11T03:52:34.175Z,99.80
2018-11-11T03:55:02.849Z,99.80
2018-11-11T03:57:31.478Z,99.80
2018-11-11T04:00:00.138Z,99.80
2018-11-11T04:02:28.838Z,99.80
2018-11-11T04:04:57.583Z,99.80
2018-11-11T04:07:26.680Z,99.80
2018-11-11T04:09:55.338Z,99.80
2018-11-11T04:12:23.961Z,99.80
2018-11-11T04:14:52.627Z,99.80
2018-11-11T04:17:21.318Z,99.80
2018-11-11T04:19:50.220Z,99.80
2018-11-11T04:22:20.473Z,99.80
2018-11-11T04:24:50.636Z,99.80
2018-11-11T04:27:20.002Z,99.80
2018-11-11T04:29:48.878Z,99.80
2018-11-11T04:32:17.493Z,99.80
2018-11-11T04:34:46.221Z,99.80
2018-11-11T04:37:14.872Z,99.80
2018-11-11T04:39:43.480Z,99.80
2018-11-11T04:42:12.160Z,99.80
2018-11-11T04:44:40.817Z,99.80
2018-11-11T04:47:09.462Z,99.80
2018-11-11T04:49:38.103Z,99.80
2018-11-11T04:52:07.038Z,99.80
2018-11-11T04:54:36.599Z,99.80
2018-11-11T04:57:05.290Z,99.80
2018-11-11T04:59:33.965Z,99.80
2018-11-11T05:02:03.104Z,99.80
2018-11-11T05:04:31.875Z,99.80
2018-11-11T05:07:00.620Z,99.80
2018-11-11T05:09:29.239Z,99.80
2018-11-11T05:11:57.879Z,99.80
2018-11-11T05:14:26.477Z,99.80
2018-11-11T05:16:55.135Z,99.80
2018-11-11T05:19:24.171Z,99.80
2018-11-11T05:21:52.834Z,99.80
2018-11-11T05:24:21.468Z,99.80
2018-11-11T05:26:51.108Z,99.80
2018-11-11T05:29:19.791Z,99.80
2018-11-11T05:31:48.449Z,99.80
2018-11-11T05:34:17.134Z,99.80
2018-11-11T05:36:46.046Z,99.80
2018-11-11T05:39:14.799Z,99.80
2018-11-11T05:41:43.573Z,99.80
2018-11-11T05:44:12.350Z,99.80
2018-11-11T05:46:40.978Z,99.80
2018-11-11T05:49:09.602Z,99.80
2018-11-11T05:51:38.414Z,99.80
2018-11-11T05:54:07.349Z,99.80
2018-11-11T05:56:36.103Z,99.80
2018-11-11T05:59:05.240Z,99.80
2018-11-11T06:01:34.022Z,99.80
2018-11-11T06:04:03.202Z,99.80
2018-11-11T06:06:31.950Z,99.80
2018-11-11T06:09:00.711Z,99.80
2018-11-11T06:11:29.418Z,99.70
2018-11-11T06:13:58.332Z,99.60
2018-11-11T06:16:27.281Z,99.50
2018-11-11T06:18:55.998Z,99.50
2018-11-11T06:21:25.120Z,99.50
2018-11-11T06:23:54.263Z,99.60
2018-11-11T06:26:23.225Z,99.40
2018-11-11T06:28:52.006Z,99.80
2018-11-11T06:31:20.766Z,99.80
2018-11-11T06:33:49.478Z,98.10
2018-11-11T06:36:18.222Z,98.10
2018-11-11T06:38:46.952Z,98.10
2018-11-11T06:41:15.602Z,98.30
2018-11-11T06:43:44.298Z,98.40
2018-11-11T06:46:12.943Z,98.50
2018-11-11T06:48:41.631Z,98.60
2018-11-11T06:51:10.322Z,98.60
2018-11-11T06:53:39.272Z,98.60
2018-11-11T06:56:08.043Z,98.70
2018-11-11T06:58:36.751Z,98.70
2018-11-11T07:01:06.255Z,98.60
2018-11-11T07:03:52.057Z,98.60
2018-11-11T07:06:21.393Z,98.60
2018-11-11T07:08:50.215Z,98.60
2018-11-11T07:11:20.260Z,98.60
2018-11-11T07:13:50.125Z,98.60
2018-11-11T07:16:19.071Z,98.70
2018-11-11T07:18:50.035Z,98.70
2018-11-11T07:21:20.349Z,98.70
2018-11-11T07:23:49.500Z,98.50
2018-11-11T07:26:18.731Z,98.60
2018-11-11T07:28:49.216Z,98.70
2018-11-11T07:31:20.422Z,98.80
2018-11-11T07:33:49.573Z,98.90
2018-11-11T07:36:18.217Z,99.00
2018-11-11T07:38:48.602Z,99.10
2018-11-11T07:41:17.650Z,99.20
2018-11-11T07:43:47.375Z,99.30
2018-11-11T07:46:17.377Z,99.30
2018-11-11T07:48:46.100Z,99.40
2018-11-11T07:51:17.515Z,99.00
2018-11-11T07:53:46.523Z,99.00
2018-11-11T07:56:15.350Z,99.00
2018-11-11T07:58:44.037Z,98.70
2018-11-11T08:01:12.986Z,98.80
2018-11-11T08:03:41.640Z,98.70
2018-11-11T08:06:10.318Z,98.30
2018-11-11T08:08:39.118Z,97.90
2018-11-11T08:11:19.395Z,97.90
2018-11-11T08:13:47.860Z,97.40
2018-11-11T08:16:16.539Z,96.90
2018-11-11T08:18:45.138Z,96.50
2018-11-11T08:21:13.775Z,96.90
2018-11-11T08:23:42.566Z,96.70
2018-11-11T08:26:11.271Z,96.10
2018-11-11T08:28:39.886Z,95.10
2018-11-11T08:31:08.661Z,95.10
2018-11-11T08:33:37.330Z,95.10
2018-11-11T08:36:06.175Z,95.10
2018-11-11T08:38:34.939Z,94.60
2018-11-11T08:41:07.788Z,93.80
2018-11-11T08:43:40.656Z,93.80
2018-11-11T08:46:09.674Z,94.00
2018-11-11T08:48:39.134Z,92.80
2018-11-11T08:51:07.777Z,92.50
2018-11-11T08:53:36.609Z,92.20
2018-11-11T08:56:05.797Z,92.50
2018-11-11T08:58:34.647Z,93.10
2018-11-11T09:01:03.484Z,92.90
2018-11-11T09:03:32.267Z,92.20
2018-11-11T09:06:01.010Z,92.50
2018-11-11T09:08:29.803Z,92.40
2018-11-11T09:11:08.980Z,92.20
2018-11-11T09:13:37.611Z,91.30
2018-11-11T09:16:06.296Z,91.20
2018-11-11T09:18:35.074Z,91.10
2018-11-11T09:21:04.145Z,90.20
2018-11-11T09:23:33.291Z,89.80
2018-11-11T09:26:02.214Z,88.10
2018-11-11T09:28:31.122Z,88.20
2018-11-11T09:31:00.164Z,82.90
2018-11-11T09:33:28.911Z,84.10
2018-11-11T09:35:58.361Z,84.60
2018-11-11T09:38:27.995Z,81.10
2018-11-11T09:40:56.714Z,83.40
2018-11-11T09:43:27.538Z,82.20
2018-11-11T09:45:58.393Z,81.30
2018-11-11T09:48:28.225Z,81.70
2018-11-11T09:50:57.808Z,81.10
2018-11-11T09:53:26.928Z,78.50
2018-11-11T09:55:55.699Z,80.50
2018-11-11T09:58:24.490Z,78.60
2018-11-11T10:00:53.241Z,73.60
2018-11-11T10:03:30.585Z,70.90
2018-11-11T10:07:14.986Z,74.60
2018-11-11T10:09:51.800Z,74.40
2018-11-11T10:12:27.347Z,73.90
2018-11-11T10:15:05.476Z,72.70
2018-11-11T10:19:43.892Z,74.20
2018-11-11T10:22:18.555Z,72.60
2018-11-11T10:25:22.356Z,72.80
2018-11-11T10:28:00.193Z,72.60
2018-11-11T10:30:34.745Z,71.30
2018-11-11T10:33:21.109Z,70.90
2018-11-11T10:35:54.663Z,70.00
2018-11-11T10:38:27.757Z,68.80
2018-11-11T10:41:03.310Z,69.80
2018-11-11T10:43:38.255Z,69.10
2018-11-11T10:46:24.506Z,68.90
2018-11-11T10:49:00.336Z,68.90
2018-11-11T10:51:29.177Z,68.10
2018-11-11T10:53:58.099Z,67.20
2018-11-11T10:56:27.178Z,66.30
2018-11-11T10:58:56.177Z,68.60
2018-11-11T11:01:26.812Z,68.10
2018-11-11T11:03:55.871Z,67.20
2018-11-11T11:06:29.848Z,66.50
2018-11-11T11:09:03.725Z,65.00
2018-11-11T11:11:32.690Z,65.30
2018-11-11T11:14:01.530Z,65.20
2018-11-11T11:16:30.224Z,65.40
2018-11-11T11:18:58.866Z,64.80
2018-11-11T11:21:27.959Z,64.10
2018-11-11T11:23:57.127Z,64.30
2018-11-11T11:26:26.272Z,63.60
2018-11-11T11:28:55.011Z,63.90
2018-11-11T11:31:23.853Z,63.10
2018-11-11T11:33:52.518Z,63.70
2018-11-11T11:36:21.169Z,64.00
2018-11-11T11:38:50.333Z,63.20
2018-11-11T11:41:19.691Z,64.40
2018-11-11T11:43:48.381Z,63.50
2018-11-11T11:46:18.188Z,63.80
2018-11-11T11:48:47.954Z,64.10
2018-11-11T11:51:17.962Z,63.70
2018-11-11T11:53:46.676Z,62.60
2018-11-11T11:56:15.667Z,61.00
2018-11-11T11:58:46.639Z,61.90
2018-11-11T12:01:15.317Z,62.70
2018-11-11T12:03:44.041Z,62.50
2018-11-11T12:06:13.271Z,59.80
2018-11-11T12:08:42.511Z,61.90
2018-11-11T12:11:12.623Z,62.20
2018-11-11T12:13:41.290Z,62.20
2018-11-11T12:16:09.963Z,61.20
2018-11-11T12:18:38.652Z,61.90
2018-11-11T12:21:07.380Z,61.00
2018-11-11T12:23:36.336Z,61.60
2018-11-11T12:26:05.153Z,62.40
2018-11-11T12:28:33.888Z,61.00
2018-11-11T12:31:03.091Z,60.80
2018-11-11T12:33:32.006Z,61.60
2018-11-11T12:36:01.298Z,60.10
2018-11-11T12:38:31.591Z,60.90
2018-11-11T12:41:00.774Z,61.90
2018-11-11T12:43:36.032Z,63.10
2018-11-11T12:46:04.750Z,62.70
2018-11-11T12:48:33.438Z,63.40
2018-11-11T12:51:02.533Z,61.60
2018-11-11T12:53:31.439Z,62.30
2018-11-11T12:56:00.372Z,62.20
2018-11-11T12:58:29.150Z,61.30
2018-11-11T13:00:58.967Z,61.50
2018-11-11T13:03:27.815Z,61.90
2018-11-11T13:05:56.495Z,61.60
2018-11-11T13:08:25.154Z,61.70
2018-11-11T13:10:53.716Z,62.40
2018-11-11T13:13:22.378Z,60.80
2018-11-11T13:15:51.350Z,60.50
2018-11-11T13:18:20.077Z,60.70
2018-11-11T13:20:48.959Z,60.50
2018-11-11T13:23:18.244Z,59.80
2018-11-11T13:25:47.275Z,59.70
2018-11-11T13:28:16.842Z,59.80
2018-11-11T13:30:45.502Z,60.70
2018-11-11T13:33:15.157Z,61.00
2018-11-11T13:35:44.305Z,60.90
2018-11-11T13:38:13.461Z,61.20
2018-11-11T13:40:42.935Z,60.90
2018-11-11T13:43:11.842Z,60.10
2018-11-11T13:45:40.614Z,61.70
2018-11-11T13:48:09.344Z,60.90
2018-11-11T13:50:38.187Z,60.60
2018-11-11T13:53:06.983Z,59.70
2018-11-11T13:55:37.902Z,59.40
2018-11-11T13:58:08.949Z,58.90
2018-11-11T14:00:41.519Z,58.00
2018-11-11T14:03:14.198Z,57.90
2018-11-11T14:05:49.047Z,58.00
2018-11-11T14:08:32.124Z,57.50
2018-11-11T14:11:05.621Z,57.00
2018-11-11T14:13:39.316Z,56.20
2018-11-11T14:16:14.008Z,56.60
2018-11-11T14:18:54.896Z,56.20
2018-11-11T14:21:26.563Z,56.20
2018-11-11T14:23:55.406Z,56.50
2018-11-11T14:26:24.391Z,56.40
2018-11-11T14:28:53.233Z,57.80
2018-11-11T14:31:22.565Z,59.10
2018-11-11T14:33:51.339Z,60.60
2018-11-11T14:36:20.060Z,61.60
2018-11-11T14:38:48.752Z,62.50
2018-11-11T14:41:17.535Z,63.10
2018-11-11T14:43:46.595Z,63.60
2018-11-11T14:46:15.339Z,64.00
2018-11-11T14:48:44.030Z,65.10
2018-11-11T14:51:12.693Z,65.20
2018-11-11T14:53:41.611Z,65.90
2018-11-11T14:56:10.369Z,65.10
2018-11-11T14:58:39.025Z,62.20
2018-11-11T15:01:08.226Z,58.90
2018-11-11T15:03:37.587Z,57.40
2018-11-11T15:06:07.333Z,55.30
2018-11-11T15:08:36.027Z,54.40
2018-11-11T15:11:08.819Z,54.30
2018-11-11T15:13:38.007Z,55.80
2018-11-11T15:16:17.846Z,57.70
2018-11-11T15:18:46.564Z,59.40
2018-11-11T15:21:16.021Z,61.30
2018-11-11T15:23:45.352Z,62.80
2018-11-11T15:26:14.032Z,64.10
2018-11-11T15:28:48.668Z,65.20
2018-11-11T15:31:17.453Z,66.40
2018-11-11T15:33:47.180Z,67.30
2018-11-11T15:36:15.970Z,68.50
2018-11-11T15:38:44.643Z,68.70
2018-11-11T15:41:13.604Z,69.30
2018-11-11T15:43:42.344Z,69.90
2018-11-11T15:46:11.031Z,70.30
2018-11-11T15:48:39.888Z,71.50
2018-11-11T15:51:08.565Z,72.40
2018-11-11T15:53:37.490Z,73.00
2018-11-11T15:56:21.325Z,73.90
2018-11-11T15:58:50.974Z,74.40
2018-11-11T16:01:19.978Z,74.80
2018-11-11T16:03:49.593Z,75.20
2018-11-11T16:06:26.350Z,75.40
2018-11-11T16:09:08.833Z,75.50
2018-11-11T16:11:48.161Z,75.70
2018-11-11T16:14:19.583Z,75.90
2018-11-11T16:16:50.206Z,75.90
2018-11-11T16:19:31.136Z,76.20
2018-11-11T16:22:10.821Z,76.20
2018-11-11T16:24:47.652Z,76.50
2018-11-11T16:27:19.264Z,76.70
2018-11-11T16:29:49.688Z,77.10
2018-11-11T16:32:21.963Z,77.40
2018-11-11T16:34:50.644Z,77.80
2018-11-11T16:37:22.623Z,78.20
2018-11-11T16:39:53.887Z,78.40
2018-11-11T16:42:23.077Z,78.70
2018-11-11T16:44:53.108Z,78.80
2018-11-11T16:47:23.093Z,79.40
2018-11-11T16:49:51.847Z,80.60
2018-11-11T16:52:21.463Z,80.70
2018-11-11T16:54:51.438Z,81.10
2018-11-11T16:57:32.621Z,81.20
2018-11-11T17:00:01.563Z,81.40
2018-11-11T17:02:30.267Z,81.60
2018-11-11T17:04:58.944Z,81.70
2018-11-11T17:07:27.586Z,82.00
2018-11-11T17:09:56.521Z,82.10
2018-11-11T17:12:31.017Z,82.40
2018-11-11T17:14:59.881Z,82.60
2018-11-11T17:17:28.519Z,82.70
2018-11-11T17:19:57.570Z,82.70
2018-11-11T17:22:26.548Z,83.00
2018-11-11T17:24:55.297Z,83.50
2018-11-11T17:27:24.457Z,83.50
2018-11-11T17:29:53.185Z,83.70
2018-11-11T17:32:21.875Z,83.90
2018-11-11T17:34:50.516Z,84.00
2018-11-11T17:37:19.391Z,84.30
2018-11-11T17:39:48.369Z,84.30
2018-11-11T17:42:17.493Z,84.50
2018-11-11T17:44:46.411Z,84.90
2018-11-11T17:47:15.252Z,84.90
2018-11-11T17:49:45.568Z,85.10
2018-11-11T17:52:17.322Z,85.40
2018-11-11T17:54:46.282Z,85.40
2018-11-11T17:57:14.968Z,85.90
2018-11-11T17:59:43.689Z,85.90
2018-11-11T18:02:13.431Z,85.80
2018-11-11T18:04:42.103Z,86.20
2018-11-11T18:07:10.829Z,86.40
2018-11-11T18:09:39.570Z,86.70
2018-11-11T18:12:08.485Z,86.80
2018-11-11T18:14:37.314Z,86.90
2018-11-11T18:17:06.469Z,87.10
2018-11-11T18:19:35.063Z,87.10
2018-11-11T18:22:03.796Z,87.40
2018-11-11T18:24:32.460Z,87.30
2018-11-11T18:27:01.269Z,87.40
2018-11-11T18:29:29.929Z,87.30
2018-11-11T18:31:58.601Z,87.20
2018-11-11T18:34:27.353Z,87.30
2018-11-11T18:36:56.229Z,87.40
2018-11-11T18:39:25.205Z,87.60
2018-11-11T18:41:54.448Z,87.60
2018-11-11T18:44:23.229Z,87.60
2018-11-11T18:46:51.882Z,87.70
2018-11-11T18:49:20.495Z,87.70
2018-11-11T18:51:49.429Z,87.60
2018-11-11T18:54:18.107Z,87.60
2018-11-11T18:56:46.762Z,87.70
2018-11-11T18:59:15.365Z,87.60
2018-11-11T19:01:44.769Z,87.70
2018-11-11T19:04:13.401Z,87.90
2018-11-11T19:06:42.112Z,88.10
2018-11-11T19:09:13.147Z,87.90
2018-11-11T19:11:42.943Z,87.90
2018-11-11T19:14:11.588Z,87.90
2018-11-11T19:16:40.222Z,87.90
2018-11-11T19:19:09.049Z,87.90
2018-11-11T19:21:37.739Z,88.10
2018-11-11T19:24:06.419Z,88.10
2018-11-11T19:26:35.239Z,88.10
2018-11-11T19:29:04.089Z,88.10
2018-11-11T19:31:33.467Z,88.10
2018-11-11T19:34:02.269Z,88.10
2018-11-11T19:37:56.232Z,87.90
2018-11-11T19:40:26.127Z,87.90
2018-11-11T19:42:56.261Z,87.90
2018-11-11T19:45:26.119Z,87.90
2018-11-11T19:47:54.836Z,87.90
2018-11-11T19:50:24.467Z,87.90
2018-11-11T19:52:54.318Z,87.90
2018-11-11T19:55:23.415Z,87.90
2018-11-11T19:57:52.291Z,87.90
2018-11-11T20:00:24.410Z,87.90
2018-11-11T20:02:53.721Z,87.70
2018-11-11T20:05:22.723Z,87.70
2018-11-11T20:07:52.894Z,87.60
2018-11-11T20:10:22.399Z,87.70
2018-11-11T20:12:51.230Z,87.70
2018-11-11T20:15:21.300Z,87.60
2018-11-11T20:17:50.479Z,87.40
2018-11-11T20:20:20.635Z,87.40
2018-11-11T20:22:49.684Z,87.30
2018-11-11T20:25:19.174Z,87.20
2018-11-11T20:27:48.255Z,87.20
2018-11-11T20:30:20.942Z,87.30
2018-11-11T20:32:49.909Z,87.30
2018-11-11T20:35:21.067Z,87.30
2018-11-11T20:37:50.658Z,87.30
2018-11-11T20:40:21.042Z,87.30
2018-11-11T20:42:50.603Z,87.20
2018-11-11T20:45:20.648Z,87.20
2018-11-11T20:47:50.050Z,87.20
2018-11-11T20:50:20.866Z,87.20
2018-11-11T20:52:51.225Z,87.30
2018-11-11T20:55:20.852Z,87.40
2018-11-11T20:57:49.771Z,87.40
2018-11-11T21:00:20.703Z,87.30
2018-11-11T21:02:49.643Z,87.20
2018-11-11T21:05:20.128Z,87.30
2018-11-11T21:07:49.094Z,87.30
2018-11-11T21:10:20.191Z,87.30
2018-11-11T21:12:49.548Z,87.30
2018-11-11T21:15:19.796Z,87.30
2018-11-11T21:17:48.590Z,87.30
2018-11-11T21:20:19.741Z,87.20
2018-11-11T21:22:48.736Z,87.10
2018-11-11T21:25:17.422Z,87.00
2018-11-11T21:27:46.934Z,86.90
2018-11-11T21:30:20.384Z,86.90
2018-11-11T21:32:49.315Z,86.90
2018-11-11T21:35:18.043Z,86.80
2018-11-11T21:37:46.864Z,86.60
2018-11-11T21:40:17.466Z,86.60
2018-11-11T21:42:47.048Z,86.30
2018-11-11T21:45:16.982Z,86.00
2018-11-11T21:47:45.950Z,85.90
2018-11-11T21:50:15.878Z,85.60
2018-11-11T21:52:46.808Z,85.40
2018-11-11T21:55:20.581Z,85.30
2018-11-11T21:57:49.743Z,85.10
2018-11-11T22:00:18.521Z,85.10
2018-11-11T22:02:47.317Z,85.10
2018-11-11T22:05:15.966Z,85.10
2018-11-11T22:07:45.244Z,85.20
2018-11-11T22:10:14.936Z,85.10
2018-11-11T22:12:44.556Z,85.10
2018-11-11T22:15:13.630Z,85.10
2018-11-11T22:17:43.061Z,85.10
2018-11-11T22:20:12.247Z,85.00
2018-11-11T22:22:41.552Z,85.00
2018-11-11T22:25:10.568Z,84.90
2018-11-11T22:27:39.373Z,84.60
2018-11-11T22:30:10.530Z,84.40
2018-11-11T22:32:39.829Z,84.20
2018-11-11T22:35:12.304Z,84.00
2018-11-11T22:37:41.046Z,83.90
2018-11-11T22:40:12.524Z,83.80
2018-11-11T22:42:41.387Z,83.70
2018-11-11T22:45:12.964Z,83.70
2018-11-11T22:47:41.701Z,83.60
2018-11-11T22:50:12.723Z,83.60
2018-11-11T22:52:41.547Z,83.60
2018-11-11T22:55:11.204Z,83.50
2018-11-11T22:57:40.302Z,83.40
2018-11-11T23:00:18.822Z,83.20
2018-11-11T23:02:47.517Z,83.00
2018-11-11T23:05:18.604Z,83.00
2018-11-11T23:07:49.078Z,83.00
2018-11-11T23:10:18.560Z,83.00
2018-11-11T23:12:49.729Z,83.00
2018-11-11T23:15:19.725Z,83.00
2018-11-11T23:17:48.458Z,82.80
2018-11-11T23:20:19.041Z,82.70
2018-11-11T23:22:47.740Z,82.60
2018-11-11T23:25:17.226Z,82.60
2018-11-11T23:27:45.928Z,82.50
2018-11-11T23:30:19.108Z,82.50
2018-11-11T23:32:48.453Z,82.50
2018-11-11T23:35:17.177Z,82.50
2018-11-11T23:37:46.067Z,82.70
2018-11-11T23:40:16.447Z,82.60
2018-11-11T23:42:46.203Z,82.70
2018-11-11T23:45:15.279Z,82.70
2018-11-11T23:47:43.914Z,82.60
2018-11-11T23:50:16.510Z,82.60
2018-11-11T23:52:45.974Z,82.50
2018-11-11T23:55:16.222Z,82.40
2018-11-11T23:57:44.892Z,82.20
